Terminal Aerodrome Forecast
Issued by NWS Newport/Morehead City, NC

Home | Current Version | Previous Version | Text Only | Print | Product List | Glossary Off
Versions: 1 2 3 4 5 6 7 8 9 10 11 12 13 14 15 16 17 18 19 20 21 22 23 24 25

000
FTUS42 KMHX 182100 AAF
TAFEWN
TAF AMD
KEWN 182133Z 1822/1918 09010G15KT 2SM TSRA BR SCT020 BKN050CB
     FM182200 05010G15KT 3SM TSRA SCT020CB BKN030
     FM182300 21007KT P6SM VCSH BKN040
     FM190300 20004KT P6SM VCSH SCT050 BKN100
     FM190600 22004KT 4SM BR SCT050 BKN100
     FM191300 28007KT P6SM SCT035 BKN120=

USA.gov is the U.S. government's official web portal to all federal, state and local government web resources and services.